sensor_id;sensor_type;location;lat;lon;timestamp;temperature;humidity
20921;DHT22;10620;52.472;21.028;2022-10-23T00:01:13;12.60;99.90
20921;DHT22;10620;52.472;21.028;2022-10-23T00:03:42;12.70;99.90
20921;DHT22;10620;52.472;21.028;2022-10-23T00:06:12;12.60;99.90
20921;DHT22;10620;52.472;21.028;2022-10-23T00:08:42;12.60;99.90
20921;DHT22;10620;52.472;21.028;2022-10-23T00:11:12;12.60;99.90
20921;DHT22;10620;52.472;21.028;2022-10-23T00:13:41;12.70;99.90
20921;DHT22;10620;52.472;21.028;2022-10-23T00:16:10;12.60;99.90
20921;DHT22;10620;52.472;21.028;2022-10-23T00:18:38;12.50;99.90
20921;DHT22;10620;52.472;21.028;2022-10-23T00:21:08;12.50;99.90
20921;DHT22;10620;52.472;21.028;2022-10-23T00:23:37;12.60;99.90
20921;DHT22;10620;52.472;21.028;2022-10-23T00:26:08;12.60;99.90
20921;DHT22;10620;52.472;21.028;2022-10-23T00:28:41;12.60;99.90
20921;DHT22;10620;52.472;21.028;2022-10-23T00:31:10;12.70;99.90
20921;DHT22;10620;52.472;21.028;2022-10-23T00:33:40;12.70;99.90
20921;DHT22;10620;52.472;21.028;2022-10-23T00:36:10;12.60;99.90
20921;DHT22;10620;52.472;21.028;2022-10-23T00:38:39;12.60;99.90
20921;DHT22;10620;52.472;21.028;2022-10-23T00:41:11;11.40;99.90
20921;DHT22;10620;52.472;21.028;2022-10-23T00:43:55;12.60;99.90
20921;DHT22;10620;52.472;21.028;2022-10-23T00:46:24;12.50;99.90
20921;DHT22;10620;52.472;21.028;2022-10-23T00:48:52;12.60;99.90
20921;DHT22;10620;52.472;21.028;2022-10-23T00:51:21;12.60;99.90
20921;DHT22;10620;52.472;21.028;2022-10-23T00:53:51;12.50;99.90
20921;DHT22;10620;52.472;21.028;2022-10-23T00:56:41;12.50;99.90
20921;DHT22;10620;52.472;21.028;2022-10-23T00:59:10;12.50;99.90
20921;DHT22;10620;52.472;21.028;2022-10-23T01:01:39;11.00;99.90
20921;DHT22;10620;52.472;21.028;2022-10-23T01:04:08;12.60;99.90
20921;DHT22;10620;52.472;21.028;2022-10-23T01:06:39;12.50;99.90
20921;DHT22;10620;52.472;21.028;2022-10-23T01:09:12;12.50;99.90
20921;DHT22;10620;52.472;21.028;2022-10-23T01:11:46;12.60;99.90
20921;DHT22;10620;52.472;21.028;2022-10-23T01:14:19;12.60;99.90
20921;DHT22;10620;52.472;21.028;2022-10-23T01:16:52;12.60;99.90
20921;DHT22;10620;52.472;21.028;2022-10-23T01:19:26;12.50;99.90
20921;DHT22;10620;52.472;21.028;2022-10-23T01:22:06;12.60;99.90
20921;DHT22;10620;52.472;21.028;2022-10-23T01:24:42;12.60;99.90
20921;DHT22;10620;52.472;21.028;2022-10-23T01:27:17;12.70;99.90
20921;DHT22;10620;52.472;21.028;2022-10-23T01:29:48;12.60;99.90
20921;DHT22;10620;52.472;21.028;2022-10-23T01:32:26;12.60;99.90
20921;DHT22;10620;52.472;21.028;2022-10-23T01:34:58;12.70;99.90
20921;DHT22;10620;52.472;21.028;2022-10-23T01:37:31;12.60;99.90
20921;DHT22;10620;52.472;21.028;2022-10-23T01:40:04;12.60;99.90
20921;DHT22;10620;52.472;21.028;2022-10-23T01:42:37;12.60;99.90
20921;DHT22;10620;52.472;21.028;2022-10-23T01:45:08;12.70;99.90
20921;DHT22;10620;52.472;21.028;2022-10-23T01:47:43;12.60;99.90
20921;DHT22;10620;52.472;21.028;2022-10-23T01:50:15;12.60;99.90
20921;DHT22;10620;52.472;21.028;2022-10-23T01:52:47;12.70;99.90
20921;DHT22;10620;52.472;21.028;2022-10-23T01:55:16;12.70;99.90
20921;DHT22;10620;52.472;21.028;2022-10-23T01:57:46;12.70;99.90
20921;DHT22;10620;52.472;21.028;2022-10-23T02:00:17;12.70;99.90
20921;DHT22;10620;52.472;21.028;2022-10-23T02:02:52;12.70;99.90
20921;DHT22;10620;52.472;21.028;2022-10-23T02:05:29;12.70;99.90
20921;DHT22;10620;52.472;21.028;2022-10-23T02:07:59;12.70;99.90
20921;DHT22;10620;52.472;21.028;2022-10-23T02:10:29;12.70;99.90
20921;DHT22;10620;52.472;21.028;2022-10-23T02:13:02;12.60;99.90
20921;DHT22;10620;52.472;21.028;2022-10-23T02:15:33;12.80;99.90
20921;DHT22;10620;52.472;21.028;2022-10-23T02:18:05;12.80;99.90
20921;DHT22;10620;52.472;21.028;2022-10-23T02:20:37;12.80;99.90
20921;DHT22;10620;52.472;21.028;2022-10-23T02:23:11;12.80;99.90
20921;DHT22;10620;52.472;21.028;2022-10-23T02:25:45;12.80;99.90
20921;DHT22;10620;52.472;21.028;2022-10-23T02:28:18;12.80;99.90
20921;DHT22;10620;52.472;21.028;2022-10-23T02:30:54;12.80;99.90
20921;DHT22;10620;52.472;21.028;2022-10-23T02:33:24;12.70;99.90
20921;DHT22;10620;52.472;21.028;2022-10-23T02:35:54;12.70;99.90
20921;DHT22;10620;52.472;21.028;2022-10-23T02:38:34;12.70;99.90
20921;DHT22;10620;52.472;21.028;2022-10-23T02:41:18;12.70;99.90
20921;DHT22;10620;52.472;21.028;2022-10-23T02:43:52;12.70;99.90
20921;DHT22;10620;52.472;21.028;2022-10-23T02:46:24;12.70;99.90
20921;DHT22;10620;52.472;21.028;2022-10-23T02:48:57;12.70;99.90
20921;DHT22;10620;52.472;21.028;2022-10-23T02:51:31;12.60;99.90
20921;DHT22;10620;52.472;21.028;2022-10-23T02:54:03;12.50;99.90
20921;DHT22;10620;52.472;21.028;2022-10-23T02:56:35;12.60;99.90
20921;DHT22;10620;52.472;21.028;2022-10-23T02:59:09;12.50;99.90
20921;DHT22;10620;52.472;21.028;2022-10-23T03:01:40;12.50;99.90
20921;DHT22;10620;52.472;21.028;2022-10-23T03:04:11;12.60;99.90
20921;DHT22;10620;52.472;21.028;2022-10-23T03:06:40;12.50;99.90
20921;DHT22;10620;52.472;21.028;2022-10-23T03:09:14;12.40;99.90
20921;DHT22;10620;52.472;21.028;2022-10-23T03:11:43;12.40;99.90
20921;DHT22;10620;52.472;21.028;2022-10-23T03:14:13;12.50;99.90
20921;DHT22;10620;52.472;21.028;2022-10-23T03:16:42;12.30;99.90
20921;DHT22;10620;52.472;21.028;2022-10-23T03:19:10;12.50;99.90
20921;DHT22;10620;52.472;21.028;2022-10-23T03:21:40;12.50;99.90
20921;DHT22;10620;52.472;21.028;2022-10-23T03:24:09;12.40;99.90
20921;DHT22;10620;52.472;21.028;2022-10-23T03:26:41;12.30;99.90
20921;DHT22;10620;52.472;21.028;2022-10-23T03:29:10;12.30;99.90
20921;DHT22;10620;52.472;21.028;2022-10-23T03:31:46;12.30;99.90
20921;DHT22;10620;52.472;21.028;2022-10-23T03:34:15;12.30;99.90
20921;DHT22;10620;52.472;21.028;2022-10-23T03:36:43;12.40;99.90
20921;DHT22;10620;52.472;21.028;2022-10-23T03:39:13;12.30;99.90
20921;DHT22;10620;52.472;21.028;2022-10-23T03:41:42;12.70;99.90
20921;DHT22;10620;52.472;21.028;2022-10-23T03:44:10;12.30;99.90
20921;DHT22;10620;52.472;21.028;2022-10-23T03:46:43;12.30;99.90
20921;DHT22;10620;52.472;21.028;2022-10-23T03:49:13;12.50;99.90
20921;DHT22;10620;52.472;21.028;2022-10-23T03:51:43;12.40;99.90
20921;DHT22;10620;52.472;21.028;2022-10-23T03:54:20;12.40;99.90
20921;DHT22;10620;52.472;21.028;2022-10-23T03:56:49;12.40;99.90
20921;DHT22;10620;52.472;21.028;2022-10-23T03:59:23;12.40;99.90
20921;DHT22;10620;52.472;21.028;2022-10-23T04:01:52;12.50;99.90
20921;DHT22;10620;52.472;21.028;2022-10-23T04:04:24;12.60;99.90
20921;DHT22;10620;52.472;21.028;2022-10-23T04:06:53;12.60;99.90
20921;DHT22;10620;52.472;21.028;2022-10-23T04:09:22;12.50;99.90
20921;DHT22;10620;52.472;21.028;2022-10-23T04:11:51;12.50;99.90
20921;DHT22;10620;52.472;21.028;2022-10-23T04:14:20;12.50;99.90
20921;DHT22;10620;52.472;21.028;2022-10-23T04:16:48;12.40;99.90
20921;DHT22;10620;52.472;21.028;2022-10-23T04:19:17;12.40;99.90
20921;DHT22;10620;52.472;21.028;2022-10-23T04:21:47;12.20;99.90
20921;DHT22;10620;52.472;21.028;2022-10-23T04:24:16;12.20;99.90
20921;DHT22;10620;52.472;21.028;2022-10-23T04:26:44;12.00;99.90
20921;DHT22;10620;52.472;21.028;2022-10-23T06:40:55;12.30;99.90
20921;DHT22;10620;52.472;21.028;2022-10-23T06:43:33;12.30;99.90
20921;DHT22;10620;52.472;21.028;2022-10-23T06:46:19;12.40;99.90
20921;DHT22;10620;52.472;21.028;2022-10-23T06:49:06;12.40;99.90
20921;DHT22;10620;52.472;21.028;2022-10-23T06:51:43;12.50;99.90
20921;DHT22;10620;52.472;21.028;2022-10-23T06:54:13;12.50;99.90
20921;DHT22;10620;52.472;21.028;2022-10-23T06:57:09;12.60;99.90
20921;DHT22;10620;52.472;21.028;2022-10-23T06:59:43;12.60;99.90
20921;DHT22;10620;52.472;21.028;2022-10-23T07:02:11;12.50;99.90
20921;DHT22;10620;52.472;21.028;2022-10-23T07:04:41;12.60;99.90
20921;DHT22;10620;52.472;21.028;2022-10-23T07:07:17;12.70;99.90
20921;DHT22;10620;52.472;21.028;2022-10-23T07:09:47;12.70;99.90
20921;DHT22;10620;52.472;21.028;2022-10-23T07:12:24;12.70;99.90
20921;DHT22;10620;52.472;21.028;2022-10-23T07:15:08;12.70;99.90
20921;DHT22;10620;52.472;21.028;2022-10-23T07:17:37;12.70;99.90
20921;DHT22;10620;52.472;21.028;2022-10-23T07:20:06;12.90;99.90
20921;DHT22;10620;52.472;21.028;2022-10-23T07:22:37;12.80;99.90
20921;DHT22;10620;52.472;21.028;2022-10-23T07:25:12;12.90;99.90
20921;DHT22;10620;52.472;21.028;2022-10-23T07:27:42;12.80;99.90
20921;DHT22;10620;52.472;21.028;2022-10-23T07:30:12;12.70;99.90
20921;DHT22;10620;52.472;21.028;2022-10-23T07:32:46;12.90;99.90
20921;DHT22;10620;52.472;21.028;2022-10-23T07:35:34;13.10;99.90
20921;DHT22;10620;52.472;21.028;2022-10-23T07:38:17;13.20;99.90
20921;DHT22;10620;52.472;21.028;2022-10-23T07:40:51;13.20;99.90
20921;DHT22;10620;52.472;21.028;2022-10-23T07:43:21;13.10;99.90
20921;DHT22;10620;52.472;21.028;2022-10-23T07:45:52;13.10;99.90
20921;DHT22;10620;52.472;21.028;2022-10-23T07:48:25;13.10;99.90
20921;DHT22;10620;52.472;21.028;2022-10-23T07:50:58;13.30;99.90
20921;DHT22;10620;52.472;21.028;2022-10-23T07:53:30;13.40;99.90
20921;DHT22;10620;52.472;21.028;2022-10-23T07:56:19;13.60;99.90
20921;DHT22;10620;52.472;21.028;2022-10-23T07:59:10;13.60;99.90
20921;DHT22;10620;52.472;21.028;2022-10-23T08:01:40;13.80;99.90
20921;DHT22;10620;52.472;21.028;2022-10-23T08:04:10;13.90;99.90
20921;DHT22;10620;52.472;21.028;2022-10-23T08:06:50;13.70;99.90
20921;DHT22;10620;52.472;21.028;2022-10-23T08:09:19;14.00;99.90
20921;DHT22;10620;52.472;21.028;2022-10-23T08:11:48;14.20;99.90
20921;DHT22;10620;52.472;21.028;2022-10-23T08:14:20;14.30;99.90
20921;DHT22;10620;52.472;21.028;2022-10-23T08:16:49;14.20;99.90
20921;DHT22;10620;52.472;21.028;2022-10-23T08:19:18;14.20;99.90
20921;DHT22;10620;52.472;21.028;2022-10-23T08:21:50;14.30;99.90
20921;DHT22;10620;52.472;21.028;2022-10-23T08:24:21;14.30;99.90
20921;DHT22;10620;52.472;21.028;2022-10-23T08:26:50;14.50;99.90
20921;DHT22;10620;52.472;21.028;2022-10-23T08:29:23;14.70;99.90
20921;DHT22;10620;52.472;21.028;2022-10-23T08:31:53;14.80;99.90
20921;DHT22;10620;52.472;21.028;2022-10-23T08:34:32;14.80;99.90
20921;DHT22;10620;52.472;21.028;2022-10-23T08:37:02;14.80;99.90
20921;DHT22;10620;52.472;21.028;2022-10-23T08:39:33;14.90;99.90
20921;DHT22;10620;52.472;21.028;2022-10-23T08:42:16;14.80;99.90
20921;DHT22;10620;52.472;21.028;2022-10-23T08:44:51;14.90;99.90
20921;DHT22;10620;52.472;21.028;2022-10-23T08:47:23;15.10;99.90
20921;DHT22;10620;52.472;21.028;2022-10-23T08:50:13;15.20;99.90
20921;DHT22;10620;52.472;21.028;2022-10-23T08:52:47;15.30;99.90
20921;DHT22;10620;52.472;21.028;2022-10-23T08:55:20;15.20;99.90
20921;DHT22;10620;52.472;21.028;2022-10-23T08:57:52;15.10;99.90
20921;DHT22;10620;52.472;21.028;2022-10-23T09:00:23;15.10;99.90
20921;DHT22;10620;52.472;21.028;2022-10-23T09:02:52;15.00;99.90
20921;DHT22;10620;52.472;21.028;2022-10-23T09:05:24;14.90;99.90
20921;DHT22;10620;52.472;21.028;2022-10-23T09:07:59;14.70;99.90
20921;DHT22;10620;52.472;21.028;2022-10-23T09:10:33;14.60;99.90
20921;DHT22;10620;52.472;21.028;2022-10-23T09:15:51;14.60;99.90
20921;DHT22;10620;52.472;21.028;2022-10-23T09:18:24;14.70;99.90
20921;DHT22;10620;52.472;21.028;2022-10-23T09:20:53;14.80;99.90
20921;DHT22;10620;52.472;21.028;2022-10-23T09:23:22;14.70;99.90
20921;DHT22;10620;52.472;21.028;2022-10-23T09:25:51;14.80;99.90
20921;DHT22;10620;52.472;21.028;2022-10-23T09:28:24;15.00;99.90
20921;DHT22;10620;52.472;21.028;2022-10-23T09:31:04;15.00;99.90
20921;DHT22;10620;52.472;21.028;2022-10-23T09:33:33;15.00;99.90
20921;DHT22;10620;52.472;21.028;2022-10-23T09:36:04;15.10;99.90
20921;DHT22;10620;52.472;21.028;2022-10-23T09:38:35;15.10;99.90
20921;DHT22;10620;52.472;21.028;2022-10-23T09:41:05;15.00;99.90
20921;DHT22;10620;52.472;21.028;2022-10-23T09:43:34;15.00;99.90
20921;DHT22;10620;52.472;21.028;2022-10-23T09:46:06;14.90;99.90
20921;DHT22;10620;52.472;21.028;2022-10-23T09:48:37;15.00;99.90
20921;DHT22;10620;52.472;21.028;2022-10-23T09:51:14;14.60;99.90
20921;DHT22;10620;52.472;21.028;2022-10-23T09:53:47;14.60;99.90
20921;DHT22;10620;52.472;21.028;2022-10-23T09:56:23;14.50;99.90
20921;DHT22;10620;52.472;21.028;2022-10-23T09:58:53;14.30;99.90
20921;DHT22;10620;52.472;21.028;2022-10-23T10:01:25;14.20;99.90
20921;DHT22;10620;52.472;21.028;2022-10-23T10:04:01;14.20;99.90
20921;DHT22;10620;52.472;21.028;2022-10-23T10:06:30;14.20;99.90
20921;DHT22;10620;52.472;21.028;2022-10-23T10:09:01;14.30;99.90
20921;DHT22;10620;52.472;21.028;2022-10-23T10:11:32;14.30;99.90
20921;DHT22;10620;52.472;21.028;2022-10-23T10:14:14;14.30;99.90
20921;DHT22;10620;52.472;21.028;2022-10-23T10:16:49;14.30;99.90
20921;DHT22;10620;52.472;21.028;2022-10-23T10:19:25;14.30;99.90
20921;DHT22;10620;52.472;21.028;2022-10-23T10:21:57;14.40;99.90
20921;DHT22;10620;52.472;21.028;2022-10-23T10:24:33;14.30;99.90
20921;DHT22;10620;52.472;21.028;2022-10-23T10:27:05;14.30;99.90
20921;DHT22;10620;52.472;21.028;2022-10-23T10:29:44;14.20;99.90
20921;DHT22;10620;52.472;21.028;2022-10-23T10:32:18;14.30;99.90
20921;DHT22;10620;52.472;21.028;2022-10-23T10:34:50;14.30;99.90
20921;DHT22;10620;52.472;21.028;2022-10-23T10:37:24;14.30;99.90
20921;DHT22;10620;52.472;21.028;2022-10-23T10:39:57;14.30;99.90
20921;DHT22;10620;52.472;21.028;2022-10-23T10:42:32;14.40;99.90
20921;DHT22;10620;52.472;21.028;2022-10-23T10:45:10;14.40;99.90
20921;DHT22;10620;52.472;21.028;2022-10-23T10:47:43;14.40;99.90
20921;DHT22;10620;52.472;21.028;2022-10-23T10:50:22;14.60;99.90
20921;DHT22;10620;52.472;21.028;2022-10-23T10:53:04;14.60;99.90
20921;DHT22;10620;52.472;21.028;2022-10-23T10:55:37;14.70;99.90
20921;DHT22;10620;52.472;21.028;2022-10-23T10:58:09;14.90;99.90
20921;DHT22;10620;52.472;21.028;2022-10-23T11:00:41;14.90;99.90
20921;DHT22;10620;52.472;21.028;2022-10-23T11:03:15;14.90;99.90
20921;DHT22;10620;52.472;21.028;2022-10-23T11:05:49;14.80;99.90
20921;DHT22;10620;52.472;21.028;2022-10-23T11:08:19;14.80;99.90
20921;DHT22;10620;52.472;21.028;2022-10-23T11:10:55;14.70;99.90
20921;DHT22;10620;52.472;21.028;2022-10-23T11:13:26;14.60;99.90
20921;DHT22;10620;52.472;21.028;2022-10-23T11:15:56;14.60;99.90
20921;DHT22;10620;52.472;21.028;2022-10-23T11:18:28;14.60;99.90
20921;DHT22;10620;52.472;21.028;2022-10-23T11:20:59;14.70;99.90
20921;DHT22;10620;52.472;21.028;2022-10-23T11:26:25;14.60;99.90
20921;DHT22;10620;52.472;21.028;2022-10-23T11:29:11;14.70;99.90
20921;DHT22;10620;52.472;21.028;2022-10-23T11:31:49;14.80;99.90
20921;DHT22;10620;52.472;21.028;2022-10-23T11:34:35;14.70;99.90
20921;DHT22;10620;52.472;21.028;2022-10-23T11:37:06;14.70;99.90
20921;DHT22;10620;52.472;21.028;2022-10-23T11:39:36;14.70;99.90
20921;DHT22;10620;52.472;21.028;2022-10-23T11:42:12;14.60;99.90
20921;DHT22;10620;52.472;21.028;2022-10-23T11:44:42;14.60;99.90
20921;DHT22;10620;52.472;21.028;2022-10-23T11:47:28;14.60;99.90
20921;DHT22;10620;52.472;21.028;2022-10-23T11:50:22;14.60;99.90
20921;DHT22;10620;52.472;21.028;2022-10-23T11:52:54;14.70;99.90
20921;DHT22;10620;52.472;21.028;2022-10-23T11:55:54;14.80;99.90
20921;DHT22;10620;52.472;21.028;2022-10-23T11:58:24;14.60;99.90
20921;DHT22;10620;52.472;21.028;2022-10-23T12:01:00;14.70;99.90
20921;DHT22;10620;52.472;21.028;2022-10-23T12:06:01;14.50;99.90
20921;DHT22;10620;52.472;21.028;2022-10-23T12:08:33;14.50;99.90
20921;DHT22;10620;52.472;21.028;2022-10-23T12:11:02;14.90;99.90
20921;DHT22;10620;52.472;21.028;2022-10-23T12:23:38;14.50;99.90
20921;DHT22;10620;52.472;21.028;2022-10-23T12:26:27;15.00;99.90
20921;DHT22;10620;52.472;21.028;2022-10-23T12:28:58;15.00;99.90
20921;DHT22;10620;52.472;21.028;2022-10-23T12:31:32;14.90;99.90
20921;DHT22;10620;52.472;21.028;2022-10-23T12:34:07;14.90;99.90
20921;DHT22;10620;52.472;21.028;2022-10-23T13:31:36;14.20;99.90
20921;DHT22;10620;52.472;21.028;2022-10-23T13:34:11;14.20;99.90
20921;DHT22;10620;52.472;21.028;2022-10-23T13:39:12;14.20;99.90
20921;DHT22;10620;52.472;21.028;2022-10-23T13:41:41;14.20;99.90
20921;DHT22;10620;52.472;21.028;2022-10-23T13:44:10;14.20;99.90
20921;DHT22;10620;52.472;21.028;2022-10-23T13:46:41;14.20;99.90
20921;DHT22;10620;52.472;21.028;2022-10-23T13:51:39;14.50;99.90
20921;DHT22;10620;52.472;21.028;2022-10-23T13:56:37;14.00;99.90
20921;DHT22;10620;52.472;21.028;2022-10-23T13:59:07;13.90;99.90
20921;DHT22;10620;52.472;21.028;2022-10-23T14:01:36;14.20;99.90
20921;DHT22;10620;52.472;21.028;2022-10-23T14:04:08;13.40;99.90
20921;DHT22;10620;52.472;21.028;2022-10-23T14:06:38;14.20;99.90
20921;DHT22;10620;52.472;21.028;2022-10-23T14:09:09;14.10;99.90
20921;DHT22;10620;52.472;21.028;2022-10-23T14:11:38;14.20;99.90
20921;DHT22;10620;52.472;21.028;2022-10-23T14:14:07;13.60;99.90
20921;DHT22;10620;52.472;21.028;2022-10-23T14:16:36;13.70;99.90
20921;DHT22;10620;52.472;21.028;2022-10-23T14:21:35;14.00;99.90
20921;DHT22;10620;52.472;21.028;2022-10-23T14:24:04;13.80;99.90
20921;DHT22;10620;52.472;21.028;2022-10-23T14:26:32;14.20;99.90
20921;DHT22;10620;52.472;21.028;2022-10-23T14:29:01;13.80;99.90
20921;DHT22;10620;52.472;21.028;2022-10-23T14:31:36;14.00;99.90
20921;DHT22;10620;52.472;21.028;2022-10-23T14:34:05;14.10;99.90
20921;DHT22;10620;52.472;21.028;2022-10-23T14:36:33;13.80;99.90
20921;DHT22;10620;52.472;21.028;2022-10-23T14:39:18;13.90;99.90
20921;DHT22;10620;52.472;21.028;2022-10-23T14:41:46;14.30;99.90
20921;DHT22;10620;52.472;21.028;2022-10-23T14:46:44;13.80;99.90
20921;DHT22;10620;52.472;21.028;2022-10-23T14:49:12;13.80;99.90
20921;DHT22;10620;52.472;21.028;2022-10-23T14:51:41;13.70;99.90
20921;DHT22;10620;52.472;21.028;2022-10-23T14:54:10;14.50;99.90
20921;DHT22;10620;52.472;21.028;2022-10-23T14:56:40;13.70;99.90
20921;DHT22;10620;52.472;21.028;2022-10-23T14:59:09;13.70;99.90
20921;DHT22;10620;52.472;21.028;2022-10-23T15:01:39;13.70;99.90
20921;DHT22;10620;52.472;21.028;2022-10-23T15:04:14;13.70;99.90
20921;DHT22;10620;52.472;21.028;2022-10-23T15:06:42;13.70;99.90
20921;DHT22;10620;52.472;21.028;2022-10-23T15:09:12;13.70;99.90
20921;DHT22;10620;52.472;21.028;2022-10-23T15:11:42;13.60;99.90
20921;DHT22;10620;52.472;21.028;2022-10-23T15:14:11;13.50;99.90
20921;DHT22;10620;52.472;21.028;2022-10-23T15:16:40;13.40;99.90
20921;DHT22;10620;52.472;21.028;2022-10-23T15:19:09;13.50;99.90
20921;DHT22;10620;52.472;21.028;2022-10-23T15:21:45;13.50;99.90
20921;DHT22;10620;52.472;21.028;2022-10-23T15:24:13;13.50;99.90
20921;DHT22;10620;52.472;21.028;2022-10-23T15:26:43;13.50;99.90
20921;DHT22;10620;52.472;21.028;2022-10-23T15:29:12;13.50;99.90
20921;DHT22;10620;52.472;21.028;2022-10-23T15:31:43;13.40;99.90
20921;DHT22;10620;52.472;21.028;2022-10-23T15:34:13;13.40;99.90
20921;DHT22;10620;52.472;21.028;2022-10-23T15:36:42;13.40;99.90
20921;DHT22;10620;52.472;21.028;2022-10-23T15:39:12;13.30;99.90
20921;DHT22;10620;52.472;21.028;2022-10-23T15:41:41;13.20;99.90
20921;DHT22;10620;52.472;21.028;2022-10-23T15:44:12;13.20;99.90
20921;DHT22;10620;52.472;21.028;2022-10-23T15:46:42;13.30;99.90
20921;DHT22;10620;52.472;21.028;2022-10-23T15:49:11;13.20;99.90
20921;DHT22;10620;52.472;21.028;2022-10-23T15:51:40;13.10;99.90
20921;DHT22;10620;52.472;21.028;2022-10-23T15:54:09;13.10;99.90
20921;DHT22;10620;52.472;21.028;2022-10-23T15:56:39;12.90;99.90
20921;DHT22;10620;52.472;21.028;2022-10-23T15:59:08;13.00;99.90
20921;DHT22;10620;52.472;21.028;2022-10-23T16:01:38;13.00;99.90
20921;DHT22;10620;52.472;21.028;2022-10-23T16:04:07;13.10;99.90
20921;DHT22;10620;52.472;21.028;2022-10-23T16:06:36;13.00;99.90
20921;DHT22;10620;52.472;21.028;2022-10-23T16:09:05;12.80;99.90
20921;DHT22;10620;52.472;21.028;2022-10-23T16:11:34;13.10;99.90
20921;DHT22;10620;52.472;21.028;2022-10-23T16:14:03;12.90;99.90
20921;DHT22;10620;52.472;21.028;2022-10-23T16:16:32;13.00;99.90
20921;DHT22;10620;52.472;21.028;2022-10-23T16:19:03;13.00;99.90
20921;DHT22;10620;52.472;21.028;2022-10-23T16:21:32;12.90;99.90
20921;DHT22;10620;52.472;21.028;2022-10-23T16:24:03;12.60;99.90
20921;DHT22;10620;52.472;21.028;2022-10-23T16:26:32;12.80;99.90
20921;DHT22;10620;52.472;21.028;2022-10-23T16:29:02;12.80;99.90
20921;DHT22;10620;52.472;21.028;2022-10-23T16:31:31;12.80;99.90
20921;DHT22;10620;52.472;21.028;2022-10-23T16:34:00;13.00;99.90
20921;DHT22;10620;52.472;21.028;2022-10-23T16:36:31;12.90;99.90
20921;DHT22;10620;52.472;21.028;2022-10-23T16:39:15;12.80;99.90
20921;DHT22;10620;52.472;21.028;2022-10-23T16:42:03;12.60;99.90
20921;DHT22;10620;52.472;21.028;2022-10-23T16:44:50;12.60;99.90
20921;DHT22;10620;52.472;21.028;2022-10-23T16:47:19;12.70;99.90
20921;DHT22;10620;52.472;21.028;2022-10-23T16:49:48;12.50;99.90
20921;DHT22;10620;52.472;21.028;2022-10-23T16:52:18;12.40;99.90
20921;DHT22;10620;52.472;21.028;2022-10-23T16:54:46;12.50;99.90
20921;DHT22;10620;52.472;21.028;2022-10-23T16:57:15;12.40;99.90
20921;DHT22;10620;52.472;21.028;2022-10-23T16:59:44;12.40;99.90
20921;DHT22;10620;52.472;21.028;2022-10-23T17:02:13;12.60;99.90
20921;DHT22;10620;52.472;21.028;2022-10-23T17:04:42;12.40;99.90
20921;DHT22;10620;52.472;21.028;2022-10-23T17:07:11;12.70;99.90
20921;DHT22;10620;52.472;21.028;2022-10-23T17:09:44;12.50;99.90
20921;DHT22;10620;52.472;21.028;2022-10-23T17:12:13;12.60;99.90
20921;DHT22;10620;52.472;21.028;2022-10-23T17:14:43;12.50;99.90
20921;DHT22;10620;52.472;21.028;2022-10-23T17:17:11;12.60;99.90
20921;DHT22;10620;52.472;21.028;2022-10-23T17:19:40;12.50;99.90
20921;DHT22;10620;52.472;21.028;2022-10-23T17:22:12;12.60;99.90
20921;DHT22;10620;52.472;21.028;2022-10-23T17:24:41;12.60;99.90
20921;DHT22;10620;52.472;21.028;2022-10-23T17:27:16;12.50;99.90
20921;DHT22;10620;52.472;21.028;2022-10-23T17:29:45;12.60;99.90
20921;DHT22;10620;52.472;21.028;2022-10-23T17:32:14;12.50;99.90
20921;DHT22;10620;52.472;21.028;2022-10-23T17:34:42;12.60;99.90
20921;DHT22;10620;52.472;21.028;2022-10-23T17:37:12;12.60;99.90
20921;DHT22;10620;52.472;21.028;2022-10-23T17:39:41;12.50;99.90
20921;DHT22;10620;52.472;21.028;2022-10-23T17:42:10;12.40;99.90
20921;DHT22;10620;52.472;21.028;2022-10-23T17:44:41;12.70;99.90
20921;DHT22;10620;52.472;21.028;2022-10-23T17:47:10;12.20;99.90
20921;DHT22;10620;52.472;21.028;2022-10-23T17:49:38;12.70;99.90
20921;DHT22;10620;52.472;21.028;2022-10-23T17:52:12;12.80;99.90
20921;DHT22;10620;52.472;21.028;2022-10-23T17:54:41;13.40;99.90
20921;DHT22;10620;52.472;21.028;2022-10-23T17:57:10;12.60;99.90
20921;DHT22;10620;52.472;21.028;2022-10-23T17:59:39;12.60;99.90
20921;DHT22;10620;52.472;21.028;2022-10-23T18:02:09;12.70;99.90
20921;DHT22;10620;52.472;21.028;2022-10-23T18:04:39;12.50;99.90
20921;DHT22;10620;52.472;21.028;2022-10-23T18:07:08;12.60;99.90
20921;DHT22;10620;52.472;21.028;2022-10-23T18:09:36;12.60;99.90
20921;DHT22;10620;52.472;21.028;2022-10-23T18:12:05;12.70;99.90
20921;DHT22;10620;52.472;21.028;2022-10-23T18:14:34;12.40;99.90
20921;DHT22;10620;52.472;21.028;2022-10-23T18:17:04;12.10;99.90
20921;DHT22;10620;52.472;21.028;2022-10-23T18:19:34;12.00;99.90
20921;DHT22;10620;52.472;21.028;2022-10-23T18:22:02;11.80;99.90
20921;DHT22;10620;52.472;21.028;2022-10-23T18:24:31;11.70;99.90
20921;DHT22;10620;52.472;21.028;2022-10-23T18:27:00;11.60;99.90
20921;DHT22;10620;52.472;21.028;2022-10-23T18:29:29;11.50;99.90
20921;DHT22;10620;52.472;21.028;2022-10-23T18:31:57;11.40;99.90
20921;DHT22;10620;52.472;21.028;2022-10-23T18:34:26;11.30;99.90
20921;DHT22;10620;52.472;21.028;2022-10-23T18:36:56;11.20;99.90
20921;DHT22;10620;52.472;21.028;2022-10-23T18:39:27;11.10;99.90
20921;DHT22;10620;52.472;21.028;2022-10-23T18:41:56;11.10;99.90
20921;DHT22;10620;52.472;21.028;2022-10-23T18:44:25;11.10;99.90
20921;DHT22;10620;52.472;21.028;2022-10-23T18:46:55;10.90;99.90
20921;DHT22;10620;52.472;21.028;2022-10-23T18:49:24;10.80;99.90
20921;DHT22;10620;52.472;21.028;2022-10-23T18:51:53;10.70;99.90
20921;DHT22;10620;52.472;21.028;2022-10-23T18:54:23;10.70;99.90
20921;DHT22;10620;52.472;21.028;2022-10-23T18:56:52;10.60;99.90
20921;DHT22;10620;52.472;21.028;2022-10-23T18:59:21;10.60;99.90
20921;DHT22;10620;52.472;21.028;2022-10-23T19:01:50;10.50;99.90
20921;DHT22;10620;52.472;21.028;2022-10-23T19:04:19;10.50;99.90
20921;DHT22;10620;52.472;21.028;2022-10-23T19:06:48;10.40;99.90
20921;DHT22;10620;52.472;21.028;2022-10-23T19:09:17;10.40;99.90
20921;DHT22;10620;52.472;21.028;2022-10-23T19:11:48;10.40;99.90
20921;DHT22;10620;52.472;21.028;2022-10-23T19:14:17;10.50;99.90
20921;DHT22;10620;52.472;21.028;2022-10-23T19:16:49;10.50;99.90
20921;DHT22;10620;52.472;21.028;2022-10-23T19:19:22;10.50;99.90
20921;DHT22;10620;52.472;21.028;2022-10-23T19:21:52;10.50;99.90